Lenore, Kentucky
Current Conditions -  °F | °C
As of 8:56 PM on Saturday 20 Dec 2014 (Local Time) from KSDF Reporting Station
Broken Clouds Broken Clouds  
Wind Chill: 25°   Ceiling: 25000
Heat Index: 31°   Visibility: 7mi
Dew Point: 25°   Wind: 6mph
Humidity: 79%   Direction: 10°N
Pressure: 30.3"   Gusts: NA
Location:  37.9212°N, 85.4864°W
Report Text: KSDF 210156Z 01005KT 7SM SCT070 BKN250 M01/M04 A3030 RMK AO2 SLP264 T10061039
Loading
Personal Weather Stations






























Interactive Weather Map New forecast layout! Learn more

10-Day Weather Forecast

Advertisements
Track Severe Weather on mobile